sensor_id;sensor_type;location;lat;lon;timestamp;pressure;altitude;pressure_sealevel;temperature;humidity
55916;BME280;41826;53.246;-6.670;2023-02-28T00:01:29;103114.97;;;6.07;100.00
55916;BME280;41826;53.246;-6.670;2023-02-28T00:03:55;103123.88;;;6.01;100.00
55916;BME280;41826;53.246;-6.670;2023-02-28T00:06:21;103127.78;;;6.38;100.00
55916;BME280;41826;53.246;-6.670;2023-02-28T00:08:46;103113.09;;;6.59;100.00
55916;BME280;41826;53.246;-6.670;2023-02-28T00:11:13;103093.84;;;6.62;100.00
55916;BME280;41826;53.246;-6.670;2023-02-28T00:13:41;103076.97;;;6.70;100.00
55916;BME280;41826;53.246;-6.670;2023-02-28T00:16:09;103058.78;;;6.69;100.00
55916;BME280;41826;53.246;-6.670;2023-02-28T00:18:35;103050.81;;;6.72;100.00
55916;BME280;41826;53.246;-6.670;2023-02-28T00:21:01;103054.72;;;6.38;100.00
55916;BME280;41826;53.246;-6.670;2023-02-28T00:23:26;103083.88;;;6.49;100.00
55916;BME280;41826;53.246;-6.670;2023-02-28T00:25:52;103069.31;;;6.44;100.00
55916;BME280;41826;53.246;-6.670;2023-02-28T00:28:18;103071.78;;;6.47;100.00
55916;BME280;41826;53.246;-6.670;2023-02-28T00:30:43;103071.66;;;6.50;100.00
55916;BME280;41826;53.246;-6.670;2023-02-28T00:33:09;103064.22;;;6.63;100.00
55916;BME280;41826;53.246;-6.670;2023-02-28T00:35:35;103055.78;;;6.78;100.00
55916;BME280;41826;53.246;-6.670;2023-02-28T00:38:00;103045.41;;;6.77;100.00
55916;BME280;41826;53.246;-6.670;2023-02-28T00:40:25;103035.88;;;6.76;100.00
55916;BME280;41826;53.246;-6.670;2023-02-28T00:42:51;103029.88;;;6.73;100.00
55916;BME280;41826;53.246;-6.670;2023-02-28T00:45:16;103057.59;;;6.54;100.00
55916;BME280;41826;53.246;-6.670;2023-02-28T00:47:42;103048.50;;;6.64;100.00
55916;BME280;41826;53.246;-6.670;2023-02-28T00:50:08;103045.59;;;6.72;100.00
55916;BME280;41826;53.246;-6.670;2023-02-28T00:52:33;103026.97;;;6.81;100.00
55916;BME280;41826;53.246;-6.670;2023-02-28T00:54:59;103023.75;;;6.75;100.00
55916;BME280;41826;53.246;-6.670;2023-02-28T00:57:24;103027.19;;;6.75;100.00
55916;BME280;41826;53.246;-6.670;2023-02-28T00:59:50;103022.78;;;6.77;100.00
55916;BME280;41826;53.246;-6.670;2023-02-28T01:02:15;103020.88;;;6.81;100.00
55916;BME280;41826;53.246;-6.670;2023-02-28T01:04:41;103013.84;;;6.83;100.00
55916;BME280;41826;53.246;-6.670;2023-02-28T01:07:06;103018.22;;;6.82;100.00
55916;BME280;41826;53.246;-6.670;2023-02-28T01:09:32;103014.81;;;6.80;100.00
55916;BME280;41826;53.246;-6.670;2023-02-28T01:11:57;103016.44;;;6.39;100.00
55916;BME280;41826;53.246;-6.670;2023-02-28T01:14:23;103045.22;;;6.59;100.00
55916;BME280;41826;53.246;-6.670;2023-02-28T01:16:48;103062.88;;;6.53;100.00
55916;BME280;41826;53.246;-6.670;2023-02-28T01:19:14;103081.69;;;6.61;100.00
55916;BME280;41826;53.246;-6.670;2023-02-28T01:21:39;103083.28;;;6.65;100.00
55916;BME280;41826;53.246;-6.670;2023-02-28T01:24:05;103082.47;;;6.63;100.00
55916;BME280;41826;53.246;-6.670;2023-02-28T01:26:31;103102.97;;;6.50;100.00
55916;BME280;41826;53.246;-6.670;2023-02-28T01:28:57;103107.56;;;6.67;100.00
55916;BME280;41826;53.246;-6.670;2023-02-28T01:31:23;103124.16;;;6.17;100.00
55916;BME280;41826;53.246;-6.670;2023-02-28T01:33:49;103227.06;;;6.08;100.00
55916;BME280;41826;53.246;-6.670;2023-02-28T01:36:17;103244.94;;;5.93;100.00
55916;BME280;41826;53.246;-6.670;2023-02-28T01:38:43;103243.41;;;6.14;100.00
55916;BME280;41826;53.246;-6.670;2023-02-28T01:41:16;103188.69;;;6.37;100.00
55916;BME280;41826;53.246;-6.670;2023-02-28T01:46:10;103091.03;;;6.44;100.00
55916;BME280;41826;53.246;-6.670;2023-02-28T01:48:40;103077.41;;;6.36;100.00
55916;BME280;41826;53.246;-6.670;2023-02-28T01:51:14;103137.06;;;6.22;100.00
55916;BME280;41826;53.246;-6.670;2023-02-28T01:53:49;103158.03;;;6.19;100.00
55916;BME280;41826;53.246;-6.670;2023-02-28T01:56:20;103135.00;;;6.30;100.00
55916;BME280;41826;53.246;-6.670;2023-02-28T01:58:52;103081.59;;;6.40;100.00
55916;BME280;41826;53.246;-6.670;2023-02-28T02:01:19;103038.72;;;6.47;100.00
55916;BME280;41826;53.246;-6.670;2023-02-28T02:03:53;102985.06;;;6.62;100.00
55916;BME280;41826;53.246;-6.670;2023-02-28T02:06:21;102959.47;;;6.50;100.00
55916;BME280;41826;53.246;-6.670;2023-02-28T02:08:47;102990.84;;;6.48;100.00
55916;BME280;41826;53.246;-6.670;2023-02-28T02:11:13;102947.03;;;6.57;100.00
55916;BME280;41826;53.246;-6.670;2023-02-28T02:16:41;102931.19;;;6.61;100.00
55916;BME280;41826;53.246;-6.670;2023-02-28T02:19:46;102904.34;;;6.58;100.00
55916;BME280;41826;53.246;-6.670;2023-02-28T02:41:12;102822.09;;;6.49;100.00
55916;BME280;41826;53.246;-6.670;2023-02-28T02:46:29;102857.34;;;6.37;100.00
55916;BME280;41826;53.246;-6.670;2023-02-28T02:48:57;102856.84;;;6.29;100.00
55916;BME280;41826;53.246;-6.670;2023-02-28T02:51:26;102860.22;;;6.31;100.00
55916;BME280;41826;53.246;-6.670;2023-02-28T02:54:02;102853.84;;;6.38;100.00
55916;BME280;41826;53.246;-6.670;2023-02-28T02:56:31;102843.53;;;6.56;100.00
55916;BME280;41826;53.246;-6.670;2023-02-28T02:59:04;102821.38;;;6.66;100.00
55916;BME280;41826;53.246;-6.670;2023-02-28T03:01:32;102809.88;;;6.70;100.00
55916;BME280;41826;53.246;-6.670;2023-02-28T03:04:12;102793.44;;;6.68;100.00
55916;BME280;41826;53.246;-6.670;2023-02-28T03:06:38;102794.56;;;6.62;100.00
55916;BME280;41826;53.246;-6.670;2023-02-28T03:09:04;102789.34;;;6.62;100.00
55916;BME280;41826;53.246;-6.670;2023-02-28T03:11:30;102777.28;;;6.60;100.00
55916;BME280;41826;53.246;-6.670;2023-02-28T03:19:47;102766.69;;;6.63;100.00
55916;BME280;41826;53.246;-6.670;2023-02-28T03:33:22;102780.91;;;6.56;100.00
55916;BME280;41826;53.246;-6.670;2023-02-28T03:35:55;102772.06;;;6.60;100.00
55916;BME280;41826;53.246;-6.670;2023-02-28T03:38:28;102780.03;;;6.57;100.00
55916;BME280;41826;53.246;-6.670;2023-02-28T03:41:05;102782.63;;;6.57;100.00
55916;BME280;41826;53.246;-6.670;2023-02-28T03:43:35;102789.66;;;6.55;100.00
55916;BME280;41826;53.246;-6.670;2023-02-28T03:46:07;102863.88;;;6.27;100.00
55916;BME280;41826;53.246;-6.670;2023-02-28T03:48:44;102872.03;;;6.40;100.00
55916;BME280;41826;53.246;-6.670;2023-02-28T03:51:14;102858.16;;;6.39;100.00
55916;BME280;41826;53.246;-6.670;2023-02-28T03:53:45;102862.53;;;6.39;100.00
55916;BME280;41826;53.246;-6.670;2023-02-28T03:56:26;102848.50;;;6.41;100.00
55916;BME280;41826;53.246;-6.670;2023-02-28T03:59:02;102831.56;;;6.51;100.00
55916;BME280;41826;53.246;-6.670;2023-02-28T04:01:38;102812.31;;;6.54;100.00
55916;BME280;41826;53.246;-6.670;2023-02-28T04:04:07;102821.50;;;6.42;100.00
55916;BME280;41826;53.246;-6.670;2023-02-28T04:06:33;102912.44;;;6.29;100.00
55916;BME280;41826;53.246;-6.670;2023-02-28T04:09:00;102891.59;;;6.29;100.00
55916;BME280;41826;53.246;-6.670;2023-02-28T04:13:53;102884.59;;;6.30;100.00
55916;BME280;41826;53.246;-6.670;2023-02-28T04:16:19;102941.13;;;6.29;100.00
55916;BME280;41826;53.246;-6.670;2023-02-28T04:18:44;103086.06;;;5.63;100.00
55916;BME280;41826;53.246;-6.670;2023-02-28T04:21:11;103221.38;;;5.69;100.00
55916;BME280;41826;53.246;-6.670;2023-02-28T04:23:37;103369.88;;;5.41;100.00
55916;BME280;41826;53.246;-6.670;2023-02-28T04:26:03;103447.72;;;5.20;100.00
55916;BME280;41826;53.246;-6.670;2023-02-28T04:28:29;103514.13;;;5.03;100.00
55916;BME280;41826;53.246;-6.670;2023-02-28T04:30:59;103521.94;;;5.03;100.00
55916;BME280;41826;53.246;-6.670;2023-02-28T04:33:26;103530.50;;;4.70;100.00
55916;BME280;41826;53.246;-6.670;2023-02-28T04:36:01;103543.53;;;4.70;100.00
55916;BME280;41826;53.246;-6.670;2023-02-28T04:38:29;103591.25;;;4.69;100.00
55916;BME280;41826;53.246;-6.670;2023-02-28T04:40:57;103606.13;;;4.63;100.00
55916;BME280;41826;53.246;-6.670;2023-02-28T04:43:22;103630.25;;;4.71;100.00
55916;BME280;41826;53.246;-6.670;2023-02-28T04:45:47;103629.53;;;4.64;100.00
55916;BME280;41826;53.246;-6.670;2023-02-28T04:48:13;103621.69;;;4.66;100.00
55916;BME280;41826;53.246;-6.670;2023-02-28T04:50:38;103614.09;;;4.55;100.00
55916;BME280;41826;53.246;-6.670;2023-02-28T04:53:03;103579.28;;;4.62;100.00
55916;BME280;41826;53.246;-6.670;2023-02-28T04:55:29;103554.00;;;4.67;100.00
55916;BME280;41826;53.246;-6.670;2023-02-28T04:57:54;103533.38;;;4.58;100.00
55916;BME280;41826;53.246;-6.670;2023-02-28T05:00:20;103496.94;;;4.60;100.00
55916;BME280;41826;53.246;-6.670;2023-02-28T05:02:45;103475.00;;;4.71;100.00
55916;BME280;41826;53.246;-6.670;2023-02-28T05:05:11;103450.75;;;4.69;100.00
55916;BME280;41826;53.246;-6.670;2023-02-28T05:07:41;103429.31;;;4.94;100.00
55916;BME280;41826;53.246;-6.670;2023-02-28T05:10:07;103415.22;;;5.01;100.00
55916;BME280;41826;53.246;-6.670;2023-02-28T05:12:32;103402.72;;;5.15;100.00
55916;BME280;41826;53.246;-6.670;2023-02-28T05:14:58;103410.03;;;5.01;100.00
55916;BME280;41826;53.246;-6.670;2023-02-28T05:17:23;103411.16;;;5.24;100.00
55916;BME280;41826;53.246;-6.670;2023-02-28T05:19:49;103414.19;;;5.08;100.00
55916;BME280;41826;53.246;-6.670;2023-02-28T05:22:15;103424.25;;;5.22;100.00
55916;BME280;41826;53.246;-6.670;2023-02-28T05:24:44;103433.53;;;5.31;100.00
55916;BME280;41826;53.246;-6.670;2023-02-28T05:27:09;103449.69;;;5.43;100.00
55916;BME280;41826;53.246;-6.670;2023-02-28T05:29:34;103480.44;;;5.62;100.00
55916;BME280;41826;53.246;-6.670;2023-02-28T05:32:08;103530.56;;;5.72;100.00
55916;BME280;41826;53.246;-6.670;2023-02-28T05:34:33;103537.31;;;5.48;100.00
55916;BME280;41826;53.246;-6.670;2023-02-28T05:36:59;103547.59;;;5.52;100.00
55916;BME280;41826;53.246;-6.670;2023-02-28T05:39:24;103584.00;;;5.55;100.00
55916;BME280;41826;53.246;-6.670;2023-02-28T05:41:50;103586.69;;;5.52;100.00
55916;BME280;41826;53.246;-6.670;2023-02-28T05:44:15;103605.91;;;5.47;100.00
55916;BME280;41826;53.246;-6.670;2023-02-28T05:46:41;103623.13;;;5.54;100.00
55916;BME280;41826;53.246;-6.670;2023-02-28T05:49:06;103639.75;;;5.50;100.00
55916;BME280;41826;53.246;-6.670;2023-02-28T05:51:31;103658.97;;;5.44;100.00
55916;BME280;41826;53.246;-6.670;2023-02-28T05:54:00;103659.00;;;5.42;100.00
55916;BME280;41826;53.246;-6.670;2023-02-28T05:56:26;103662.06;;;5.24;100.00
55916;BME280;41826;53.246;-6.670;2023-02-28T05:58:52;103655.56;;;5.05;100.00
55916;BME280;41826;53.246;-6.670;2023-02-28T06:01:35;103647.19;;;5.28;100.00
55916;BME280;41826;53.246;-6.670;2023-02-28T06:04:03;103652.13;;;5.40;100.00
55916;BME280;41826;53.246;-6.670;2023-02-28T06:06:29;103673.91;;;5.37;100.00
55916;BME280;41826;53.246;-6.670;2023-02-28T06:08:55;103660.75;;;5.05;100.00
55916;BME280;41826;53.246;-6.670;2023-02-28T06:11:20;103654.69;;;5.04;100.00
55916;BME280;41826;53.246;-6.670;2023-02-28T06:13:46;103644.13;;;5.10;100.00
55916;BME280;41826;53.246;-6.670;2023-02-28T06:16:12;103653.88;;;5.02;100.00
55916;BME280;41826;53.246;-6.670;2023-02-28T06:18:38;103643.03;;;5.20;100.00
55916;BME280;41826;53.246;-6.670;2023-02-28T06:21:04;103632.56;;;4.85;100.00
55916;BME280;41826;53.246;-6.670;2023-02-28T06:23:30;103625.47;;;5.29;100.00
55916;BME280;41826;53.246;-6.670;2023-02-28T06:25:55;103632.81;;;4.72;100.00
55916;BME280;41826;53.246;-6.670;2023-02-28T06:28:24;103606.69;;;4.78;100.00
55916;BME280;41826;53.246;-6.670;2023-02-28T06:30:49;103594.28;;;4.88;100.00
55916;BME280;41826;53.246;-6.670;2023-02-28T06:33:15;103584.59;;;4.95;100.00
55916;BME280;41826;53.246;-6.670;2023-02-28T06:35:44;103583.94;;;4.87;100.00
55916;BME280;41826;53.246;-6.670;2023-02-28T06:38:09;103578.19;;;4.72;100.00
55916;BME280;41826;53.246;-6.670;2023-02-28T06:40:35;103566.19;;;5.04;100.00
55916;BME280;41826;53.246;-6.670;2023-02-28T06:43:01;103567.31;;;4.92;100.00
55916;BME280;41826;53.246;-6.670;2023-02-28T06:45:27;103558.56;;;4.96;100.00
55916;BME280;41826;53.246;-6.670;2023-02-28T06:47:52;103553.44;;;4.92;100.00
55916;BME280;41826;53.246;-6.670;2023-02-28T06:50:18;103555.72;;;5.06;100.00
55916;BME280;41826;53.246;-6.670;2023-02-28T06:52:44;103554.91;;;4.66;100.00
55916;BME280;41826;53.246;-6.670;2023-02-28T06:55:10;103546.47;;;4.55;100.00
55916;BME280;41826;53.246;-6.670;2023-02-28T06:57:36;103530.66;;;4.64;100.00
55916;BME280;41826;53.246;-6.670;2023-02-28T07:00:07;103522.81;;;4.66;100.00
55916;BME280;41826;53.246;-6.670;2023-02-28T07:02:35;103507.53;;;4.52;100.00
55916;BME280;41826;53.246;-6.670;2023-02-28T07:05:00;103486.72;;;4.50;100.00
55916;BME280;41826;53.246;-6.670;2023-02-28T07:07:26;103462.78;;;4.73;100.00
55916;BME280;41826;53.246;-6.670;2023-02-28T07:09:51;103448.88;;;4.74;100.00
55916;BME280;41826;53.246;-6.670;2023-02-28T07:12:16;103450.19;;;4.56;100.00
55916;BME280;41826;53.246;-6.670;2023-02-28T07:14:42;103423.38;;;4.53;100.00
55916;BME280;41826;53.246;-6.670;2023-02-28T07:17:09;103411.09;;;4.58;100.00
55916;BME280;41826;53.246;-6.670;2023-02-28T07:19:35;103424.38;;;4.47;100.00
55916;BME280;41826;53.246;-6.670;2023-02-28T07:22:01;103406.00;;;4.55;100.00
55916;BME280;41826;53.246;-6.670;2023-02-28T07:24:28;103400.66;;;4.61;100.00
55916;BME280;41826;53.246;-6.670;2023-02-28T07:26:55;103394.25;;;4.74;100.00
55916;BME280;41826;53.246;-6.670;2023-02-28T07:29:20;103387.75;;;4.56;100.00
55916;BME280;41826;53.246;-6.670;2023-02-28T07:31:46;103381.22;;;4.74;100.00
55916;BME280;41826;53.246;-6.670;2023-02-28T07:34:12;103389.72;;;4.47;100.00
55916;BME280;41826;53.246;-6.670;2023-02-28T07:36:37;103390.09;;;4.67;100.00
55916;BME280;41826;53.246;-6.670;2023-02-28T07:39:03;103384.41;;;4.51;100.00
55916;BME280;41826;53.246;-6.670;2023-02-28T07:41:29;103389.22;;;4.67;100.00
55916;BME280;41826;53.246;-6.670;2023-02-28T07:43:58;103391.00;;;4.65;100.00
55916;BME280;41826;53.246;-6.670;2023-02-28T07:46:25;103392.13;;;4.54;100.00
55916;BME280;41826;53.246;-6.670;2023-02-28T07:48:51;103400.31;;;4.39;100.00
55916;BME280;41826;53.246;-6.670;2023-02-28T07:51:18;103399.00;;;4.57;100.00
55916;BME280;41826;53.246;-6.670;2023-02-28T07:53:44;103415.16;;;4.34;100.00
55916;BME280;41826;53.246;-6.670;2023-02-28T07:56:09;103410.91;;;4.31;100.00
55916;BME280;41826;53.246;-6.670;2023-02-28T07:58:36;103411.63;;;4.38;100.00
55916;BME280;41826;53.246;-6.670;2023-02-28T08:01:09;103424.03;;;4.25;100.00
55916;BME280;41826;53.246;-6.670;2023-02-28T08:03:36;103423.72;;;4.39;100.00
55916;BME280;41826;53.246;-6.670;2023-02-28T08:06:04;103429.78;;;4.40;100.00
55916;BME280;41826;53.246;-6.670;2023-02-28T08:08:29;103433.66;;;4.20;100.00
55916;BME280;41826;53.246;-6.670;2023-02-28T08:10:59;103451.03;;;4.20;100.00
55916;BME280;41826;53.246;-6.670;2023-02-28T08:13:25;103444.81;;;4.27;100.00
55916;BME280;41826;53.246;-6.670;2023-02-28T08:15:52;103457.94;;;4.21;100.00
55916;BME280;41826;53.246;-6.670;2023-02-28T08:18:18;103454.53;;;4.17;100.00
55916;BME280;41826;53.246;-6.670;2023-02-28T08:20:43;103470.22;;;4.14;100.00
55916;BME280;41826;53.246;-6.670;2023-02-28T08:23:08;103458.75;;;4.23;100.00
55916;BME280;41826;53.246;-6.670;2023-02-28T08:25:34;103459.66;;;4.20;100.00
55916;BME280;41826;53.246;-6.670;2023-02-28T08:27:59;103463.00;;;4.27;100.00
55916;BME280;41826;53.246;-6.670;2023-02-28T08:30:24;103460.41;;;4.25;100.00
55916;BME280;41826;53.246;-6.670;2023-02-28T08:32:50;103445.63;;;4.29;100.00
55916;BME280;41826;53.246;-6.670;2023-02-28T08:35:15;103461.22;;;4.29;100.00
55916;BME280;41826;53.246;-6.670;2023-02-28T08:37:41;103469.06;;;4.27;100.00
55916;BME280;41826;53.246;-6.670;2023-02-28T08:40:07;103465.50;;;4.31;100.00
55916;BME280;41826;53.246;-6.670;2023-02-28T08:42:32;103462.63;;;4.44;100.00
55916;BME280;41826;53.246;-6.670;2023-02-28T08:44:58;103463.50;;;4.43;100.00
55916;BME280;41826;53.246;-6.670;2023-02-28T08:47:23;103476.63;;;4.38;100.00
55916;BME280;41826;53.246;-6.670;2023-02-28T08:49:48;103476.34;;;4.50;100.00
55916;BME280;41826;53.246;-6.670;2023-02-28T08:52:14;103480.00;;;4.42;100.00
55916;BME280;41826;53.246;-6.670;2023-02-28T08:54:39;103476.09;;;4.61;100.00
55916;BME280;41826;53.246;-6.670;2023-02-28T08:57:05;103483.09;;;4.57;100.00
55916;BME280;41826;53.246;-6.670;2023-02-28T08:59:30;103499.69;;;4.53;100.00
55916;BME280;41826;53.246;-6.670;2023-02-28T09:01:56;103505.69;;;4.55;100.00
55916;BME280;41826;53.246;-6.670;2023-02-28T09:04:21;103516.97;;;4.56;100.00
55916;BME280;41826;53.246;-6.670;2023-02-28T09:06:47;103508.63;;;4.79;100.00
55916;BME280;41826;53.246;-6.670;2023-02-28T09:09:14;103524.81;;;4.54;100.00
55916;BME280;41826;53.246;-6.670;2023-02-28T09:11:41;103528.13;;;4.61;100.00
55916;BME280;41826;53.246;-6.670;2023-02-28T09:14:07;103527.41;;;4.92;100.00
55916;BME280;41826;53.246;-6.670;2023-02-28T09:16:34;103547.56;;;4.84;100.00
55916;BME280;41826;53.246;-6.670;2023-02-28T09:19:00;103544.00;;;4.88;100.00
55916;BME280;41826;53.246;-6.670;2023-02-28T09:21:25;103553.53;;;4.89;100.00
55916;BME280;41826;53.246;-6.670;2023-02-28T09:23:52;103559.41;;;4.97;100.00
55916;BME280;41826;53.246;-6.670;2023-02-28T09:26:23;103563.59;;;5.03;100.00
55916;BME280;41826;53.246;-6.670;2023-02-28T09:28:49;103574.84;;;5.05;100.00
55916;BME280;41826;53.246;-6.670;2023-02-28T09:31:17;103589.66;;;5.01;100.00
55916;BME280;41826;53.246;-6.670;2023-02-28T09:33:46;103607.69;;;5.10;100.00
55916;BME280;41826;53.246;-6.670;2023-02-28T09:36:12;103625.16;;;5.05;100.00
55916;BME280;41826;53.246;-6.670;2023-02-28T09:38:37;103640.50;;;5.17;100.00
55916;BME280;41826;53.246;-6.670;2023-02-28T09:41:11;103659.69;;;5.13;100.00
55916;BME280;41826;53.246;-6.670;2023-02-28T09:43:41;103669.09;;;5.19;100.00
55916;BME280;41826;53.246;-6.670;2023-02-28T09:46:42;103685.38;;;5.29;100.00
55916;BME280;41826;53.246;-6.670;2023-02-28T09:49:14;103710.53;;;5.30;100.00
55916;BME280;41826;53.246;-6.670;2023-02-28T09:52:04;103739.88;;;5.38;100.00
55916;BME280;41826;53.246;-6.670;2023-02-28T09:54:34;103760.44;;;5.50;100.00
55916;BME280;41826;53.246;-6.670;2023-02-28T10:08:16;103946.91;;;5.63;100.00
55916;BME280;41826;53.246;-6.670;2023-02-28T10:10:45;103984.69;;;5.42;100.00
55916;BME280;41826;53.246;-6.670;2023-02-28T10:15:45;104045.53;;;5.38;100.00
55916;BME280;41826;53.246;-6.670;2023-02-28T10:18:16;104056.06;;;5.80;100.00
55916;BME280;41826;53.246;-6.670;2023-02-28T10:20:45;104085.84;;;5.67;100.00
55916;BME280;41826;53.246;-6.670;2023-02-28T10:23:21;104110.97;;;5.73;100.00
55916;BME280;41826;53.246;-6.670;2023-02-28T10:25:55;104135.88;;;5.38;100.00
55916;BME280;41826;53.246;-6.670;2023-02-28T10:28:22;104143.06;;;5.75;100.00
55916;BME280;41826;53.246;-6.670;2023-02-28T10:30:51;104181.38;;;5.70;100.00
55916;BME280;41826;53.246;-6.670;2023-02-28T10:33:24;104198.03;;;5.61;100.00
55916;BME280;41826;53.246;-6.670;2023-02-28T10:35:51;104215.31;;;5.67;100.00
55916;BME280;41826;53.246;-6.670;2023-02-28T10:38:37;104215.97;;;5.81;100.00
55916;BME280;41826;53.246;-6.670;2023-02-28T10:43:30;104263.03;;;5.72;100.00
55916;BME280;41826;53.246;-6.670;2023-02-28T10:46:19;104277.75;;;5.76;100.00
55916;BME280;41826;53.246;-6.670;2023-02-28T10:49:05;104249.91;;;5.76;100.00
55916;BME280;41826;53.246;-6.670;2023-02-28T10:51:37;104237.22;;;5.55;100.00
55916;BME280;41826;53.246;-6.670;2023-02-28T10:54:03;104225.84;;;5.59;100.00
55916;BME280;41826;53.246;-6.670;2023-02-28T10:56:30;104211.66;;;5.80;100.00
55916;BME280;41826;53.246;-6.670;2023-02-28T11:01:39;104153.22;;;5.90;100.00
55916;BME280;41826;53.246;-6.670;2023-02-28T11:04:20;104031.78;;;5.77;100.00
55916;BME280;41826;53.246;-6.670;2023-02-28T11:07:23;103906.72;;;5.74;100.00
55916;BME280;41826;53.246;-6.670;2023-02-28T11:09:55;103867.44;;;5.83;100.00
55916;BME280;41826;53.246;-6.670;2023-02-28T11:12:37;103671.06;;;5.82;100.00
55916;BME280;41826;53.246;-6.670;2023-02-28T11:15:07;103334.91;;;5.78;100.00
55916;BME280;41826;53.246;-6.670;2023-02-28T11:17:43;103050.59;;;5.84;100.00
55916;BME280;41826;53.246;-6.670;2023-02-28T11:20:20;102883.16;;;6.01;100.00
55916;BME280;41826;53.246;-6.670;2023-02-28T11:22:47;102700.47;;;5.83;100.00
55916;BME280;41826;53.246;-6.670;2023-02-28T11:25:27;102624.94;;;5.82;100.00
55916;BME280;41826;53.246;-6.670;2023-02-28T11:27:57;102575.97;;;6.11;100.00
55916;BME280;41826;53.246;-6.670;2023-02-28T11:30:37;102359.38;;;5.77;100.00
55916;BME280;41826;53.246;-6.670;2023-02-28T11:33:20;102216.47;;;6.04;100.00
55916;BME280;41826;53.246;-6.670;2023-02-28T11:35:46;102164.31;;;6.04;100.00
55916;BME280;41826;53.246;-6.670;2023-02-28T11:38:14;102135.78;;;6.19;100.00
55916;BME280;41826;53.246;-6.670;2023-02-28T11:43:57;102245.50;;;5.97;100.00
55916;BME280;41826;53.246;-6.670;2023-02-28T11:47:04;102200.03;;;5.85;100.00
55916;BME280;41826;53.246;-6.670;2023-02-28T11:50:26;102152.72;;;6.10;100.00
55916;BME280;41826;53.246;-6.670;2023-02-28T11:53:14;102157.34;;;6.05;100.00
55916;BME280;41826;53.246;-6.670;2023-02-28T12:01:36;102099.41;;;5.65;100.00
55916;BME280;41826;53.246;-6.670;2023-02-28T12:04:13;102086.28;;;5.67;100.00
55916;BME280;41826;53.246;-6.670;2023-02-28T12:11:56;102209.38;;;5.89;100.00
55916;BME280;41826;53.246;-6.670;2023-02-28T12:14:45;102201.63;;;5.70;100.00
55916;BME280;41826;53.246;-6.670;2023-02-28T12:20:20;102320.75;;;5.67;100.00
55916;BME280;41826;53.246;-6.670;2023-02-28T12:22:52;102368.66;;;5.83;100.00
55916;BME280;41826;53.246;-6.670;2023-02-28T12:28:04;102422.75;;;5.78;100.00
55916;BME280;41826;53.246;-6.670;2023-02-28T12:30:34;102474.53;;;6.04;100.00
55916;BME280;41826;53.246;-6.670;2023-02-28T12:33:06;102438.78;;;5.69;100.00
55916;BME280;41826;53.246;-6.670;2023-02-28T12:35:47;102450.56;;;5.77;100.00
55916;BME280;41826;53.246;-6.670;2023-02-28T12:38:14;102458.75;;;6.07;100.00
55916;BME280;41826;53.246;-6.670;2023-02-28T12:40:49;102448.28;;;6.09;100.00
55916;BME280;41826;53.246;-6.670;2023-02-28T12:43:17;102451.56;;;6.13;100.00
55916;BME280;41826;53.246;-6.670;2023-02-28T12:45:51;102461.75;;;5.79;100.00
55916;BME280;41826;53.246;-6.670;2023-02-28T12:48:25;102500.84;;;6.19;100.00
55916;BME280;41826;53.246;-6.670;2023-02-28T12:50:53;102475.03;;;5.94;100.00
55916;BME280;41826;53.246;-6.670;2023-02-28T12:58:58;102420.59;;;5.67;100.00
55916;BME280;41826;53.246;-6.670;2023-02-28T13:09:34;102355.78;;;5.80;100.00
55916;BME280;41826;53.246;-6.670;2023-02-28T13:11:59;102316.88;;;5.94;100.00
55916;BME280;41826;53.246;-6.670;2023-02-28T13:14:30;102314.91;;;5.99;100.00
55916;BME280;41826;53.246;-6.670;2023-02-28T13:19:38;102290.63;;;5.80;100.00
55916;BME280;41826;53.246;-6.670;2023-02-28T13:22:04;102289.97;;;5.94;100.00
55916;BME280;41826;53.246;-6.670;2023-02-28T13:24:53;102276.75;;;6.16;100.00
55916;BME280;41826;53.246;-6.670;2023-02-28T13:27:33;102243.84;;;6.13;100.00
55916;BME280;41826;53.246;-6.670;2023-02-28T13:30:00;102199.75;;;6.26;100.00
55916;BME280;41826;53.246;-6.670;2023-02-28T13:32:32;102172.06;;;6.23;100.00
55916;BME280;41826;53.246;-6.670;2023-02-28T13:42:55;102041.59;;;6.57;100.00
55916;BME280;41826;53.246;-6.670;2023-02-28T13:45:27;102021.81;;;6.53;100.00
55916;BME280;41826;53.246;-6.670;2023-02-28T13:50:38;101920.94;;;6.37;100.00
55916;BME280;41826;53.246;-6.670;2023-02-28T13:56:03;101985.81;;;6.43;100.00
55916;BME280;41826;53.246;-6.670;2023-02-28T13:58:56;101978.53;;;5.85;100.00
55916;BME280;41826;53.246;-6.670;2023-02-28T14:01:37;102036.09;;;5.98;100.00
55916;BME280;41826;53.246;-6.670;2023-02-28T14:07:03;102024.97;;;5.94;100.00
55916;BME280;41826;53.246;-6.670;2023-02-28T14:09:34;102041.16;;;6.17;100.00
55916;BME280;41826;53.246;-6.670;2023-02-28T14:15:23;101995.66;;;6.22;100.00
55916;BME280;41826;53.246;-6.670;2023-02-28T14:17:54;101976.97;;;6.14;100.00
55916;BME280;41826;53.246;-6.670;2023-02-28T14:20:21;101989.19;;;5.80;100.00
55916;BME280;41826;53.246;-6.670;2023-02-28T14:31:18;102097.47;;;5.86;100.00
55916;BME280;41826;53.246;-6.670;2023-02-28T14:34:23;102099.63;;;5.78;100.00
55916;BME280;41826;53.246;-6.670;2023-02-28T14:36:52;102131.94;;;5.74;100.00
55916;BME280;41826;53.246;-6.670;2023-02-28T14:39:25;102161.69;;;5.87;100.00
55916;BME280;41826;53.246;-6.670;2023-02-28T14:41:51;102180.53;;;5.92;100.00
55916;BME280;41826;53.246;-6.670;2023-02-28T14:44:23;102180.78;;;6.05;100.00
55916;BME280;41826;53.246;-6.670;2023-02-28T14:46:54;102182.00;;;6.15;100.00
55916;BME280;41826;53.246;-6.670;2023-02-28T14:49:26;102151.97;;;5.91;100.00
55916;BME280;41826;53.246;-6.670;2023-02-28T14:52:15;102171.34;;;6.20;100.00
55916;BME280;41826;53.246;-6.670;2023-02-28T14:54:43;102124.34;;;5.86;100.00
55916;BME280;41826;53.246;-6.670;2023-02-28T14:57:44;102106.81;;;6.07;100.00
55916;BME280;41826;53.246;-6.670;2023-02-28T15:02:43;102099.47;;;5.81;100.00
55916;BME280;41826;53.246;-6.670;2023-02-28T15:07:37;102092.25;;;5.86;100.00